Airfield :
LOGIN :

Register | Disclaimer

   EN    FR    IT 

 










Legend :    VFR   Marginal VFR   IFR   Intensive IFR   Very Intensive IFR
Visi :
Ceiling :
>= 8 km
>= 3000ft
5 to 8 km
1000 to 3000 ft
1500m to 5 km
500 to 1000 ft
800 to 1500m
200 to 500 ft
< 800m
< 200 ft
Symbols :   Thunderstorms  Fog  Heavy snow  Heavy precipitations  Wind > 20 kt
SIGMETs :     Misc.  Thunderstorms  Icing  Turbulence  Mountain Waves  Volcanic Ashes







- Airport Elevation : 290 ft
- IATA code : LAI
- Download approach charts


LFRO - Lannion

CURRENT METAR :
  • 210800Z AUTO 22015KT 180V240 8000 BKN037/// BKN047/// BKN056/// ///TCU 13/09 Q1009 TEMPO 26025G40KT 3000 SHRA SCT010 BKN012CB

EXPIRED METARs :
  • 210730Z AUTO 22017KT 8000 BKN036 BKN042 12/08 Q1009 TEMPO 26025G40KT 3000 SHRA SCT010 BKN012CB
  • 210700Z AUTO 21014KT 8000 FEW031 SCT037 BKN110 12/09 Q1009 TEMPO 26025G40KT 3000 SHRA SCT010 BKN012CB
  • 210630Z AUTO 21015KT 8000 BKN031 BKN037 BKN046 12/09 Q1008 TEMPO 26025G40KT 3000 SHRA SCT010 BKN012CB
  • 210600Z AUTO 22016KT 8000 SCT038 BKN044 BKN066 12/08 Q1008 TEMPO 26025G40KT 3000 SHRA BKN015TCU
  • 210530Z AUTO 22016KT 8000 FEW020 SCT042 12/09 Q1008 TEMPO 26025G40KT 3000 SHRA BKN015TCU

TAF TAF LFRO
Valid from the 21 at 06:00 until the 22 at 06:00 UTC


210500Z 2106/2206 22020G30KT 9999 SCT020TCU SCT030
TEMPO 2106/2206 26025G40KT 3000 SHRA BKN015TCU
PROB30
TEMPO 2108/2120 TSRA SCT010 BKN012CB
BECMG 2200/2203 30020G30KT
No reported NOTAMs for that airfield.
2 SIGMETs reported for the Brest FIR (LFRR) :
 
Severe turbulence
LFRR SIGMET 4 VALID 210700/211100 LFPW
LFRR BREST FIR/UIR SEV TURB FCST WI N4645 W00800 - N4900 W00800 - N5000 W00200 - N5000 W00015 - N4845 W00015 - N4645 W00330 SFC/FL060 STNR NC=
Severe turbulence
LFRR SIGMET 3 VALID 210700/211100 LFPW
LFRR BREST FIR/UIR SEV TURB FCST WI N5000 W00230 - N5000 W00200 - N5000 W00030 - N4645 W00400 - N4645 W00545 FL180/280 MOV E 15KT NC=



MET'MAP, your aeronautical weather chart ! - Copyright ORBIFLY December 2007 - Disclaimer

ORBIFLY MET'MAP TEAM :

Programming & Development : Alexandra Zaïnal
Concept & Development : Baudouin d'Aumeries
Co-Development & Prog : Marc-Olivier Méhu
Technical & hardware support : Manuel Goepfert

Contact : metmap@orbifly.com




SOURCES & CREDITS :

   NOAA